Time;durP1;ratioP1;P1;durP2;ratioP2;P2;SDS_P1;SDS_P2;PMS_P1;PMS_P2;Temp;Humidity;BMP_temperature;BMP_pressure;BME280_temperature;BME280_humidity;BME280_pressure;Samples;Min_cycle;Max_cycle;Signal;HPM_P1;HPM_P2
2023/05/19 00:01:18;;;;;;;15.30;11.00;;;;;;;21.58;38.18;100907.32;108125;1254;61192;-85
2023/05/19 00:03:53;;;;;;;12.30;10.30;;;;;;;21.59;38.46;100907.74;108081;1254;61099;-85
2023/05/19 00:06:30;;;;;;;11.10;9.40;;;;;;;21.58;38.50;100912.81;108241;1254;75423;-85
2023/05/19 00:08:57;;;;;;;13.10;10.60;;;;;;;21.57;38.54;100909.88;108109;1253;74141;-86
2023/05/19 00:11:27;;;;;;;11.00;9.90;;;;;;;21.57;38.39;100913.08;108172;1253;72981;-85
2023/05/19 00:13:55;;;;;;;12.60;10.10;;;;;;;21.57;38.34;100913.71;108120;1257;61087;-85
2023/05/19 00:16:22;;;;;;;18.10;11.10;;;;;;;21.55;38.40;100914.33;108138;1253;61230;-83
2023/05/19 00:18:50;;;;;;;13.10;10.10;;;;;;;21.53;38.24;100917.69;108185;1253;73743;-85
2023/05/19 00:21:17;;;;;;;10.70;9.50;;;;;;;21.52;38.25;100915.14;108247;1254;73060;-85
2023/05/19 00:23:44;;;;;;;12.10;10.20;;;;;;;21.51;38.31;100914.01;108162;1254;75335;-84
2023/05/19 00:26:12;;;;;;;12.90;10.40;;;;;;;21.50;38.34;100912.70;108152;1254;61324;-85
2023/05/19 00:28:40;;;;;;;12.50;10.20;;;;;;;21.50;38.36;100913.09;108208;1254;61734;-84
2023/05/19 00:31:08;;;;;;;14.00;10.20;;;;;;;21.47;38.41;100920.89;108092;1253;75321;-84
2023/05/19 00:33:35;;;;;;;12.30;9.70;;;;;;;21.48;38.43;100920.59;108153;1253;75023;-84
2023/05/19 00:36:02;;;;;;;12.30;10.00;;;;;;;21.46;38.46;100922.89;107995;1253;72733;-84
2023/05/19 00:38:30;;;;;;;13.60;9.90;;;;;;;21.45;38.64;100921.18;108192;1253;61230;-84
2023/05/19 00:40:58;;;;;;;13.30;10.20;;;;;;;21.43;38.93;100928.02;108087;1253;62301;-84
2023/05/19 00:43:25;;;;;;;10.80;8.90;;;;;;;21.41;38.85;100930.97;108123;1253;73327;-86
2023/05/19 00:45:52;;;;;;;10.40;9.10;;;;;;;21.39;38.95;100933.42;108260;1254;74059;-87
2023/05/19 00:48:20;;;;;;;13.00;9.50;;;;;;;21.39;39.02;100932.23;108201;1252;73611;-84
2023/05/19 00:50:48;;;;;;;13.20;9.30;;;;;;;21.38;39.23;100930.73;108237;1254;61142;-85
2023/05/19 00:53:16;;;;;;;12.60;9.00;;;;;;;21.37;39.40;100930.20;108053;1254;61665;-84
2023/05/19 00:55:43;;;;;;;12.50;9.30;;;;;;;21.35;39.36;100929.97;108164;1252;76173;-84
2023/05/19 00:58:11;;;;;;;13.40;9.20;;;;;;;21.34;39.55;100927.20;108253;1254;72773;-84
2023/05/19 01:00:38;;;;;;;12.40;9.10;;;;;;;21.33;39.50;100925.06;107747;1256;73770;-85
2023/05/19 01:03:11;;;;;;;11.80;8.30;;;;;;;21.32;39.58;100928.03;108000;1256;59959;-84
2023/05/19 01:05:46;;;;;;;12.00;8.50;;;;;;;21.30;39.72;100930.45;108002;1254;61042;-84
2023/05/19 01:08:13;;;;;;;9.00;8.00;;;;;;;21.30;39.88;100929.60;108171;1253;74786;-85
2023/05/19 01:10:40;;;;;;;10.90;8.30;;;;;;;21.30;40.09;100931.36;108002;1254;75039;-84
2023/05/19 01:13:08;;;;;;;10.00;9.00;;;;;;;21.28;40.21;100933.20;107990;1254;74100;-84
2023/05/19 01:15:51;;;;;;;11.90;8.10;;;;;;;21.26;40.20;100934.62;108095;1254;61343;-83
2023/05/19 01:18:22;;;;;;;10.50;7.90;;;;;;;21.25;40.36;100932.57;108049;1254;59890;-84
2023/05/19 01:21:16;;;;;;;13.30;8.60;;;;;;;21.25;40.52;100933.11;107954;1254;74899;-84
2023/05/19 01:24:02;;;;;;;10.30;7.80;;;;;;;21.25;40.84;100933.92;108109;1253;74171;-85
2023/05/19 01:26:35;;;;;;;10.50;8.20;;;;;;;21.25;41.05;100935.17;108178;1254;71755;-84
2023/05/19 01:29:18;;;;;;;10.20;7.80;;;;;;;21.25;41.30;100934.65;108101;1254;61202;-83
2023/05/19 01:31:46;;;;;;;11.20;7.60;;;;;;;21.21;41.39;100935.54;108216;1253;60452;-83
2023/05/19 01:34:13;;;;;;;12.30;7.90;;;;;;;21.21;41.50;100936.63;108147;1253;74931;-84
2023/05/19 01:36:43;;;;;;;10.20;7.90;;;;;;;21.22;41.44;100939.85;108101;1254;72239;-84
2023/05/19 01:39:11;;;;;;;11.60;8.30;;;;;;;21.22;41.46;100943.84;108123;1254;75280;-84
2023/05/19 01:41:39;;;;;;;8.60;7.40;;;;;;;21.21;41.60;100948.30;108129;1257;61126;-85
2023/05/19 01:44:07;;;;;;;9.50;7.00;;;;;;;21.22;41.57;100950.56;108310;1253;61533;-86
2023/05/19 01:46:35;;;;;;;11.10;7.40;;;;;;;21.22;41.61;100957.25;108030;1254;74492;-84
2023/05/19 01:49:02;;;;;;;9.80;7.00;;;;;;;21.22;41.55;100965.18;108097;1254;72553;-84
2023/05/19 01:51:30;;;;;;;8.90;6.90;;;;;;;21.22;41.70;100973.94;108059;1254;72480;-84
2023/05/19 01:53:57;;;;;;;8.90;6.70;;;;;;;21.22;41.77;100977.35;108172;1254;61721;-84
2023/05/19 01:56:36;;;;;;;8.90;6.70;;;;;;;21.23;42.01;100975.76;108055;1253;62935;-85
2023/05/19 01:59:12;;;;;;;10.80;7.10;;;;;;;21.24;42.14;100972.61;108170;1254;73738;-84
2023/05/19 02:01:51;;;;;;;10.60;7.20;;;;;;;21.25;42.06;100976.77;107928;1254;72740;-84
2023/05/19 02:04:38;;;;;;;9.50;6.70;;;;;;;21.24;42.25;100978.82;107986;1254;72108;-84
2023/05/19 02:07:14;;;;;;;10.30;6.80;;;;;;;21.22;42.58;100982.08;108100;1254;61419;-84
2023/05/19 02:10:03;;;;;;;12.00;6.40;;;;;;;21.26;42.67;100981.89;108016;1254;62669;-84
2023/05/19 02:12:36;;;;;;;10.20;6.30;;;;;;;21.26;42.68;100983.27;108017;1254;75586;-85
2023/05/19 02:15:03;;;;;;;8.40;6.10;;;;;;;21.23;42.93;100986.02;108139;1254;71652;-84
2023/05/19 02:17:34;;;;;;;7.70;5.90;;;;;;;21.22;43.14;100988.44;108207;1254;72968;-84
2023/05/19 02:20:03;;;;;;;7.70;6.10;;;;;;;21.21;43.14;100987.40;108121;1254;61268;-86
2023/05/19 02:22:32;;;;;;;7.40;5.20;;;;;;;21.22;43.34;100992.02;108046;1254;61167;-83
2023/05/19 02:24:59;;;;;;;10.80;5.80;;;;;;;21.21;43.52;100990.19;108051;1254;75733;-84
2023/05/19 02:27:26;;;;;;;9.90;5.90;;;;;;;21.19;43.84;100993.52;108025;1254;73394;-84
2023/05/19 02:29:56;;;;;;;7.60;5.60;;;;;;;21.16;43.92;100999.33;108198;1254;74699;-84
2023/05/19 02:32:23;;;;;;;10.30;5.70;;;;;;;21.14;44.16;100999.87;108159;1254;61252;-85
2023/05/19 02:34:52;;;;;;;8.60;5.50;;;;;;;21.13;44.32;100999.77;108057;1254;63358;-84
2023/05/19 02:37:22;;;;;;;8.50;5.60;;;;;;;21.13;44.65;101004.19;108078;1253;76674;-84
2023/05/19 02:39:49;;;;;;;7.50;5.80;;;;;;;21.11;44.72;101007.39;108174;1253;73350;-83
2023/05/19 02:42:17;;;;;;;7.90;5.20;;;;;;;21.10;44.85;101009.64;107938;1254;75054;-85
2023/05/19 02:44:45;;;;;;;8.20;5.50;;;;;;;21.10;45.25;101012.10;107795;1252;201207;-85
2023/05/19 02:47:12;;;;;;;7.70;5.20;;;;;;;21.09;45.33;101017.16;108113;1254;60410;-84
2023/05/19 02:49:39;;;;;;;9.10;5.70;;;;;;;21.08;45.82;101020.48;107902;1254;74399;-85
2023/05/19 02:52:07;;;;;;;8.40;5.50;;;;;;;21.08;46.01;101022.31;107982;1253;75031;-84
2023/05/19 02:54:34;;;;;;;7.10;5.00;;;;;;;21.05;46.54;101021.68;108167;1252;72462;-84
2023/05/19 02:57:01;;;;;;;8.90;5.50;;;;;;;21.05;46.60;101021.80;108105;1254;61145;-86
2023/05/19 02:59:28;;;;;;;7.90;5.10;;;;;;;21.04;46.64;101021.61;108015;1254;61327;-85
2023/05/19 03:01:59;;;;;;;8.50;5.10;;;;;;;21.06;47.04;101019.60;108205;1253;75706;-84
2023/05/19 03:04:28;;;;;;;7.90;5.10;;;;;;;21.05;47.25;101018.00;108237;1254;72638;-84
2023/05/19 03:06:57;;;;;;;7.90;4.80;;;;;;;21.05;47.37;101015.86;108216;1254;72525;-85
2023/05/19 03:09:25;;;;;;;7.70;5.00;;;;;;;21.06;47.36;101020.02;108381;1254;62160;-85
2023/05/19 03:11:53;;;;;;;8.00;5.50;;;;;;;21.09;47.47;101024.30;108125;1254;61144;-85
2023/05/19 03:14:22;;;;;;;8.70;5.10;;;;;;;21.11;47.54;101026.52;108130;1254;76920;-85
2023/05/19 03:16:50;;;;;;;8.20;5.20;;;;;;;21.12;47.63;101027.19;108155;1259;74138;-86
2023/05/19 03:19:17;;;;;;;9.20;5.20;;;;;;;21.13;47.91;101029.45;108220;1254;74134;-85
2023/05/19 03:21:46;;;;;;;7.80;5.20;;;;;;;21.13;48.09;101029.11;108141;1254;61260;-84
2023/05/19 03:24:15;;;;;;;8.30;5.20;;;;;;;21.12;48.18;101030.18;108267;1254;62109;-84
2023/05/19 03:26:42;;;;;;;8.80;5.60;;;;;;;21.11;48.36;101029.04;108139;1254;74286;-85
2023/05/19 03:29:10;;;;;;;9.30;5.20;;;;;;;21.06;48.55;101032.95;108135;1254;72392;-84
2023/05/19 03:31:38;;;;;;;8.00;5.30;;;;;;;21.03;48.56;101032.13;108241;1256;71398;-85
2023/05/19 03:34:05;;;;;;;9.00;5.50;;;;;;;21.02;48.67;101034.38;108228;1259;60570;-85
2023/05/19 03:36:38;;;;;;;6.40;5.00;;;;;;;21.02;48.53;101037.49;108191;1254;61209;-85
2023/05/19 03:39:09;;;;;;;6.60;4.70;;;;;;;21.06;48.35;101045.06;108242;1254;77016;-85
2023/05/19 03:41:37;;;;;;;7.00;5.50;;;;;;;21.10;48.13;101040.13;108255;1253;75238;-84
2023/05/19 03:44:04;;;;;;;8.50;5.00;;;;;;;21.13;47.94;101042.52;108042;1254;74552;-84
2023/05/19 03:46:31;;;;;;;6.10;4.90;;;;;;;21.18;48.08;101042.89;108184;1252;61117;-84
2023/05/19 03:49:21;;;;;;;7.10;4.90;;;;;;;21.20;48.17;101047.12;107858;1254;61234;-84
2023/05/19 03:52:08;;;;;;;8.60;5.00;;;;;;;21.20;48.10;101046.41;108194;1254;77147;-84
2023/05/19 03:54:51;;;;;;;7.20;5.40;;;;;;;21.21;47.88;101045.92;108199;1254;73264;-86
2023/05/19 03:57:18;;;;;;;7.10;4.80;;;;;;;21.24;47.92;101041.34;108140;1254;74679;-84
2023/05/19 03:59:46;;;;;;;7.10;5.10;;;;;;;21.26;48.21;101039.11;108072;1254;63424;-84
2023/05/19 04:02:13;;;;;;;7.90;5.10;;;;;;;21.28;48.04;101037.96;108012;1254;61122;-83
2023/05/19 04:04:42;;;;;;;7.50;4.80;;;;;;;21.30;47.98;101038.95;107997;1254;75738;-83
2023/05/19 04:07:10;;;;;;;8.60;4.90;;;;;;;21.30;48.07;101042.63;108126;1258;73228;-83
2023/05/19 04:09:37;;;;;;;7.20;4.80;;;;;;;21.32;48.29;101047.42;108034;1254;74698;-84
2023/05/19 04:12:06;;;;;;;8.10;5.00;;;;;;;21.35;48.08;101044.15;108288;1254;59466;-84
2023/05/19 04:14:33;;;;;;;6.60;5.00;;;;;;;21.38;47.98;101045.35;108153;1253;61279;-84
2023/05/19 04:17:02;;;;;;;6.90;4.80;;;;;;;21.42;47.73;101043.05;108189;1254;73938;-84
2023/05/19 04:19:29;;;;;;;8.80;5.10;;;;;;;21.44;47.60;101045.39;108156;1254;75402;-85
2023/05/19 04:21:56;;;;;;;6.90;4.70;;;;;;;21.47;47.52;101043.95;108120;1254;74155;-84
2023/05/19 04:24:23;;;;;;;8.90;5.20;;;;;;;21.42;47.80;101038.55;108017;1252;61481;-84
2023/05/19 04:26:50;;;;;;;7.40;4.60;;;;;;;21.42;47.88;101045.23;108088;1254;60929;-84
2023/05/19 04:29:18;;;;;;;8.00;4.40;;;;;;;21.44;47.69;101047.53;108089;1254;74104;-85
2023/05/19 04:31:45;;;;;;;8.00;4.90;;;;;;;21.45;47.61;101053.56;108105;1258;75090;-85
2023/05/19 04:34:12;;;;;;;8.70;5.00;;;;;;;21.46;47.59;101050.52;108144;1254;70899;-85
2023/05/19 04:36:40;;;;;;;8.10;5.20;;;;;;;21.46;47.57;101049.35;108004;1254;61389;-85
2023/05/19 04:39:10;;;;;;;9.70;4.90;;;;;;;21.44;47.70;101052.61;108153;1253;62322;-85
2023/05/19 04:41:40;;;;;;;10.00;5.00;;;;;;;21.45;47.64;101052.33;108001;1254;76780;-85
2023/05/19 04:44:08;;;;;;;7.40;4.80;;;;;;;21.49;47.70;101055.36;108119;1254;73933;-85
2023/05/19 04:46:36;;;;;;;6.30;4.60;;;;;;;21.52;47.67;101059.02;108146;1254;72445;-84
2023/05/19 04:49:03;;;;;;;9.30;4.80;;;;;;;21.52;47.75;101060.20;108141;1253;62795;-84
2023/05/19 04:51:31;;;;;;;6.40;5.00;;;;;;;21.55;47.45;101060.23;108242;1254;61138;-84
2023/05/19 04:54:00;;;;;;;7.00;4.80;;;;;;;21.54;47.48;101062.76;108165;1254;74707;-84
2023/05/19 04:56:27;;;;;;;8.50;4.60;;;;;;;21.54;47.61;101063.68;108208;1254;72593;-84
2023/05/19 04:58:55;;;;;;;6.90;4.40;;;;;;;21.57;47.52;101067.56;108083;1254;73362;-84
2023/05/19 05:01:24;;;;;;;6.40;4.60;;;;;;;21.58;47.49;101067.30;108215;1254;62252;-85
2023/05/19 05:03:54;;;;;;;8.00;5.10;;;;;;;21.60;47.49;101071.34;108097;1253;61142;-84
2023/05/19 05:06:21;;;;;;;8.20;4.90;;;;;;;21.62;47.39;101069.80;108107;1254;75505;-84
2023/05/19 05:08:48;;;;;;;9.40;4.90;;;;;;;21.65;47.32;101072.49;108203;1254;73746;-84
2023/05/19 05:11:17;;;;;;;9.40;5.10;;;;;;;21.65;47.26;101078.90;108059;1254;72572;-84
2023/05/19 05:13:46;;;;;;;8.60;4.80;;;;;;;21.63;47.30;101078.09;108043;1253;61186;-84
2023/05/19 05:16:14;;;;;;;6.40;4.90;;;;;;;21.61;47.17;101082.98;108122;1254;61778;-84
2023/05/19 05:18:42;;;;;;;5.40;4.60;;;;;;;21.61;47.33;101084.03;108163;1254;75669;-84
2023/05/19 05:21:12;;;;;;;8.10;4.70;;;;;;;21.61;47.18;101088.02;108166;1254;73779;-84
2023/05/19 05:23:39;;;;;;;7.30;4.60;;;;;;;21.63;47.24;101087.72;108097;1257;73735;-86
2023/05/19 05:26:10;;;;;;;10.00;4.40;;;;;;;21.64;47.21;101093.73;108045;1254;61523;-84
2023/05/19 05:28:40;;;;;;;7.10;5.00;;;;;;;21.68;47.12;101094.31;108167;1254;62574;-84
2023/05/19 05:31:07;;;;;;;8.80;4.50;;;;;;;21.71;47.17;101096.54;108161;1254;75340;-86
2023/05/19 05:33:34;;;;;;;7.10;5.00;;;;;;;21.74;47.17;101099.93;108015;1254;71634;-85
2023/05/19 05:36:01;;;;;;;5.90;4.60;;;;;;;21.79;46.99;101100.02;108062;1260;72790;-84
2023/05/19 05:38:28;;;;;;;8.60;4.60;;;;;;;21.85;47.06;101093.62;108027;1254;61069;-84
2023/05/19 05:40:56;;;;;;;6.40;4.30;;;;;;;21.91;46.95;101092.30;108146;1253;61299;-84
2023/05/19 05:43:23;;;;;;;9.30;4.20;;;;;;;21.94;46.76;101096.71;108120;1254;74580;-84
2023/05/19 05:45:56;;;;;;;6.90;4.50;;;;;;;21.95;46.91;101096.08;108152;1254;73698;-84
2023/05/19 05:48:23;;;;;;;9.10;4.80;;;;;;;21.98;46.81;101096.52;108157;1259;71451;-84
2023/05/19 05:50:51;;;;;;;8.20;4.70;;;;;;;21.97;46.65;101097.41;108047;1253;61425;-84
2023/05/19 05:53:21;;;;;;;6.10;4.40;;;;;;;21.96;46.54;101097.03;108271;1253;61183;-83
2023/05/19 05:55:50;;;;;;;4.80;4.10;;;;;;;21.95;46.81;101099.73;108103;1254;76841;-84
2023/05/19 05:58:20;;;;;;;5.70;4.20;;;;;;;21.94;46.76;101101.98;108122;1254;74286;-83
2023/05/19 06:00:48;;;;;;;7.80;4.70;;;;;;;21.89;46.76;101104.20;108051;1258;72011;-84
2023/05/19 06:03:16;;;;;;;6.50;4.50;;;;;;;21.91;46.77;101104.96;108082;1254;61136;-83
2023/05/19 06:05:44;;;;;;;6.00;4.50;;;;;;;21.91;46.64;101106.70;108114;1254;61087;-83
2023/05/19 06:08:12;;;;;;;8.20;4.80;;;;;;;21.92;46.60;101115.59;108167;1259;76965;-83
2023/05/19 06:10:41;;;;;;;5.70;4.10;;;;;;;21.95;46.62;101109.22;108088;1254;72752;-84
2023/05/19 06:13:12;;;;;;;8.10;4.60;;;;;;;22.01;46.44;101116.08;107998;1256;74799;-83
2023/05/19 06:15:40;;;;;;;7.80;4.20;;;;;;;22.07;46.44;101122.08;108014;1254;61176;-84
2023/05/19 06:18:17;;;;;;;6.60;4.50;;;;;;;22.13;46.37;101123.92;108073;1254;61115;-84
2023/05/19 06:20:46;;;;;;;7.60;4.60;;;;;;;22.19;46.17;101129.12;108125;1254;75518;-83
2023/05/19 06:23:14;;;;;;;8.90;4.60;;;;;;;22.27;45.92;101130.30;108098;1254;74332;-86
2023/05/19 06:25:41;;;;;;;6.70;4.40;;;;;;;22.35;45.55;101132.86;108110;1254;75681;-85
2023/05/19 06:28:09;;;;;;;5.40;4.60;;;;;;;22.39;45.76;101134.58;107986;1254;61094;-84
2023/05/19 06:30:36;;;;;;;10.40;4.80;;;;;;;22.40;46.02;101131.11;108080;1255;61140;-84
2023/05/19 06:33:30;;;;;;;9.20;4.50;;;;;;;22.44;46.51;101140.23;107992;1254;76571;-84
2023/05/19 06:35:57;;;;;;;8.10;4.80;;;;;;;22.54;46.50;101135.92;108251;1254;72669;-84
2023/05/19 06:38:25;;;;;;;6.80;4.60;;;;;;;22.65;46.39;101136.24;108257;1253;74189;-84
2023/05/19 06:40:52;;;;;;;6.00;4.50;;;;;;;22.78;46.10;101136.14;108076;1254;61458;-84
2023/05/19 06:43:19;;;;;;;5.80;4.50;;;;;;;22.91;45.54;101135.09;108085;1253;61846;-83
2023/05/19 06:45:54;;;;;;;7.60;4.70;;;;;;;23.04;45.03;101134.77;108232;1253;75709;-84
2023/05/19 06:48:21;;;;;;;7.50;4.50;;;;;;;23.19;44.93;101137.70;108176;1254;74997;-84
2023/05/19 06:50:49;;;;;;;5.60;4.30;;;;;;;23.32;44.51;101137.66;108076;1253;73862;-84
2023/05/19 06:53:18;;;;;;;7.80;4.90;;;;;;;23.44;43.81;101139.38;108112;1254;61140;-84
2023/05/19 06:55:45;;;;;;;6.20;4.40;;;;;;;23.55;43.39;101138.71;108070;1257;61651;-83
2023/05/19 06:58:26;;;;;;;7.40;4.60;;;;;;;23.65;43.19;101135.38;108101;1254;74484;-85
2023/05/19 07:00:54;;;;;;;6.50;4.50;;;;;;;23.74;43.22;101139.58;108148;1254;72759;-84
2023/05/19 07:03:23;;;;;;;6.80;4.70;;;;;;;23.83;42.41;101137.23;108137;1254;74718;-85
2023/05/19 07:05:50;;;;;;;7.30;4.70;;;;;;;23.92;42.28;101137.29;108087;1254;61170;-84
2023/05/19 07:08:19;;;;;;;7.30;4.70;;;;;;;24.05;42.18;101137.83;108056;1252;61126;-84
2023/05/19 07:10:46;;;;;;;7.40;4.60;;;;;;;24.23;42.23;101142.52;108006;1253;73624;-85
2023/05/19 07:13:15;;;;;;;6.90;4.30;;;;;;;24.45;41.46;101139.34;108229;1258;72508;-84
2023/05/19 07:15:42;;;;;;;6.90;4.30;;;;;;;24.62;40.35;101142.81;108067;1257;73297;-84
2023/05/19 07:18:10;;;;;;;7.50;4.60;;;;;;;24.73;40.28;101145.00;108180;1256;62797;-82
2023/05/19 07:20:37;;;;;;;7.10;4.20;;;;;;;24.86;40.18;101144.04;108095;1254;61522;-82
2023/05/19 07:23:04;;;;;;;9.50;4.30;;;;;;;24.95;39.60;101142.01;108084;1254;76568;-84
2023/05/19 07:25:32;;;;;;;6.00;4.00;;;;;;;25.03;39.50;101138.05;108200;1254;73472;-86
2023/05/19 07:27:59;;;;;;;5.90;4.40;;;;;;;25.19;39.20;101136.02;108188;1253;75015;-85
2023/05/19 07:30:29;;;;;;;8.00;4.30;;;;;;;25.40;38.05;101136.91;108227;1254;61164;-85
2023/05/19 07:32:57;;;;;;;6.70;4.40;;;;;;;25.66;37.66;101136.66;108241;1253;61106;-86
2023/05/19 07:35:25;;;;;;;6.20;4.50;;;;;;;25.95;37.30;101133.23;108279;1254;75292;-85
2023/05/19 07:37:52;;;;;;;7.40;4.50;;;;;;;26.27;37.41;101134.14;108197;1254;72733;-85
2023/05/19 07:40:19;;;;;;;7.60;4.60;;;;;;;26.57;36.26;101131.52;108995;1254;71518;-85
2023/05/19 07:42:48;;;;;;;7.70;4.50;;;;;;;26.72;35.21;101133.09;109240;1254;61109;-84
2023/05/19 07:45:15;;;;;;;10.00;4.20;;;;;;;26.90;34.89;101131.02;109215;1254;59683;-83
2023/05/19 07:47:42;;;;;;;5.70;4.00;;;;;;;27.07;33.61;101135.44;108589;1254;75672;-83
2023/05/19 07:50:09;;;;;;;6.70;4.20;;;;;;;27.17;33.92;101132.80;108708;1254;71272;-85
2023/05/19 07:52:36;;;;;;;5.90;4.00;;;;;;;27.26;33.50;101132.24;109068;1254;72224;-83
2023/05/19 07:55:04;;;;;;;7.30;4.70;;;;;;;27.23;33.30;101129.34;108255;1253;61459;-85
2023/05/19 07:57:32;;;;;;;9.30;4.50;;;;;;;27.19;33.14;101132.94;108150;1254;61253;-84
2023/05/19 07:59:59;;;;;;;5.30;4.20;;;;;;;27.13;33.16;101136.31;108232;1254;75705;-85
2023/05/19 08:02:26;;;;;;;6.70;4.30;;;;;;;27.07;32.72;101134.90;108225;1259;75508;-84
2023/05/19 08:04:53;;;;;;;6.80;4.20;;;;;;;26.99;32.71;101136.80;108184;1259;73663;-85
2023/05/19 08:07:21;;;;;;;6.70;4.70;;;;;;;26.87;32.52;101133.16;108133;1257;62063;-84
2023/05/19 08:09:48;;;;;;;8.00;4.30;;;;;;;26.82;32.92;101135.36;108190;1254;60643;-85
2023/05/19 08:12:15;;;;;;;7.60;4.80;;;;;;;26.91;33.09;101131.77;108056;1254;75208;-83
2023/05/19 08:14:43;;;;;;;6.90;4.70;;;;;;;26.96;32.48;101128.51;108070;1255;72866;-85
2023/05/19 08:17:10;;;;;;;6.30;4.40;;;;;;;26.87;32.46;101125.55;108117;1254;74096;-83
2023/05/19 08:19:37;;;;;;;8.70;4.30;;;;;;;26.89;32.81;101123.16;108049;1254;61032;-84
2023/05/19 08:22:04;;;;;;;8.10;4.90;;;;;;;26.99;32.45;101123.50;108166;1252;60996;-84
2023/05/19 08:24:32;;;;;;;6.70;4.60;;;;;;;27.12;32.55;101126.33;108127;1254;75219;-85
2023/05/19 08:27:00;;;;;;;6.80;4.70;;;;;;;27.30;32.62;101123.39;108110;1254;72242;-84
2023/05/19 08:29:27;;;;;;;7.00;4.60;;;;;;;27.49;32.51;101124.52;108055;1254;73365;-84
2023/05/19 08:31:54;;;;;;;8.30;4.60;;;;;;;27.62;31.86;101123.79;108165;1254;61257;-84
2023/05/19 08:34:21;;;;;;;7.40;4.40;;;;;;;27.74;31.40;101121.77;108120;1254;61212;-83
2023/05/19 08:36:49;;;;;;;7.80;4.20;;;;;;;27.78;30.81;101127.92;108135;1254;76810;-84
2023/05/19 08:39:18;;;;;;;7.70;5.10;;;;;;;27.72;30.66;101123.84;108204;1254;73600;-84
2023/05/19 08:41:45;;;;;;;7.40;5.10;;;;;;;27.54;31.38;101124.63;108066;1259;74355;-85
2023/05/19 08:44:12;;;;;;;7.70;4.90;;;;;;;27.44;31.78;101124.02;108118;1254;61450;-84
2023/05/19 08:46:39;;;;;;;5.90;4.40;;;;;;;27.35;31.99;101122.80;108106;1254;61124;-86
2023/05/19 08:49:12;;;;;;;9.30;4.70;;;;;;;27.24;32.15;101128.02;107978;1253;75544;-83
2023/05/19 08:51:49;;;;;;;7.70;4.60;;;;;;;27.17;32.07;101126.54;108056;1254;74677;-84
2023/05/19 08:54:16;;;;;;;7.10;5.10;;;;;;;27.10;32.35;101125.96;108022;1259;74455;-83
2023/05/19 08:56:45;;;;;;;7.00;5.00;;;;;;;27.13;32.46;101125.80;108151;1254;61209;-83
2023/05/19 08:59:13;;;;;;;8.00;5.30;;;;;;;27.13;32.04;101130.58;108122;1254;61842;-83
2023/05/19 09:01:45;;;;;;;6.00;4.70;;;;;;;27.14;31.70;101125.69;108094;1260;73208;-84
2023/05/19 09:04:12;;;;;;;7.30;4.90;;;;;;;27.21;31.57;101127.16;108082;1254;73155;-84
2023/05/19 09:06:41;;;;;;;6.90;5.30;;;;;;;27.21;31.45;101124.59;108161;1254;71857;-84
2023/05/19 09:09:08;;;;;;;6.60;5.00;;;;;;;27.25;31.77;101124.75;108095;1254;61876;-84
2023/05/19 09:11:36;;;;;;;6.80;4.90;;;;;;;27.25;31.88;101129.55;108164;1254;61517;-84
2023/05/19 09:14:04;;;;;;;7.90;5.10;;;;;;;27.21;32.04;101135.16;108050;1254;73341;-84
2023/05/19 09:16:32;;;;;;;7.00;5.30;;;;;;;27.15;31.91;101129.55;108167;1254;73800;-86
2023/05/19 09:19:00;;;;;;;6.50;5.30;;;;;;;27.13;31.90;101127.44;108129;1254;72916;-85
2023/05/19 09:21:30;;;;;;;7.70;5.00;;;;;;;27.14;31.86;101128.89;108123;1254;61243;-85
2023/05/19 09:24:02;;;;;;;7.00;5.40;;;;;;;27.13;32.15;101124.25;108144;1253;61145;-85
2023/05/19 09:26:40;;;;;;;8.40;5.10;;;;;;;27.16;32.39;101117.73;108117;1253;73177;-85
2023/05/19 09:29:17;;;;;;;8.70;5.10;;;;;;;27.30;32.11;101112.34;108223;1254;73030;-86
2023/05/19 09:31:56;;;;;;;8.40;5.20;;;;;;;27.43;32.08;101114.12;108151;1258;72114;-83
2023/05/19 09:34:27;;;;;;;7.10;5.00;;;;;;;27.54;31.76;101115.23;108160;1254;61129;-82
2023/05/19 09:36:54;;;;;;;7.30;4.90;;;;;;;27.64;31.95;101117.40;108178;1254;61145;-85
2023/05/19 09:39:22;;;;;;;10.80;5.00;;;;;;;27.74;31.70;101118.09;108195;1253;75457;-84
2023/05/19 09:41:53;;;;;;;8.20;5.00;;;;;;;27.79;31.47;101116.48;108222;1254;72852;-84
2023/05/19 09:44:20;;;;;;;6.90;5.10;;;;;;;27.86;31.56;101115.61;108159;1254;71743;-82
2023/05/19 09:46:48;;;;;;;6.00;4.70;;;;;;;27.91;30.98;101120.81;108197;1253;61224;-83
2023/05/19 09:49:19;;;;;;;6.80;5.00;;;;;;;27.84;31.37;101117.06;108091;1253;61275;-85
2023/05/19 09:51:54;;;;;;;6.30;4.60;;;;;;;27.85;31.16;101121.47;108171;1253;73467;-84
2023/05/19 09:54:22;;;;;;;6.60;5.00;;;;;;;27.90;31.07;101122.36;108149;1254;72251;-83
2023/05/19 09:56:57;;;;;;;6.80;4.90;;;;;;;27.84;30.91;101124.91;108223;1254;71678;-84
2023/05/19 09:59:25;;;;;;;9.10;5.20;;;;;;;27.81;31.05;101123.13;108192;1259;61498;-83
2023/05/19 10:01:53;;;;;;;9.80;4.80;;;;;;;27.78;30.78;101124.05;108136;1259;61420;-84
2023/05/19 10:04:21;;;;;;;7.00;5.30;;;;;;;27.68;30.65;101124.23;108197;1254;74702;-85
2023/05/19 10:06:53;;;;;;;6.00;5.10;;;;;;;27.65;30.56;101119.45;108345;1254;73153;-84
2023/05/19 10:09:25;;;;;;;;;;;;;;;27.63;30.74;101119.55;108129;1254;71883;-83
2023/05/19 10:11:54;;;;;;;6.60;4.60;;;;;;;27.65;30.79;101117.02;108179;1253;61125;-84
2023/05/19 10:14:23;;;;;;;8.00;5.20;;;;;;;27.72;30.73;101118.50;108222;1260;60838;-84
2023/05/19 10:16:51;;;;;;;6.00;4.90;;;;;;;27.74;30.80;101114.48;108077;1254;75999;-86
2023/05/19 10:19:19;;;;;;;7.20;4.90;;;;;;;27.63;30.80;101112.83;108376;1254;74720;-85
2023/05/19 10:21:47;;;;;;;7.00;5.30;;;;;;;27.52;31.33;101108.66;108067;1254;74923;-84
2023/05/19 10:24:14;;;;;;;6.80;5.20;;;;;;;27.56;31.62;101106.96;108152;1254;62348;-85
2023/05/19 10:26:44;;;;;;;7.00;4.90;;;;;;;27.71;31.29;101103.42;108209;1253;61115;-85
2023/05/19 10:29:14;;;;;;;6.40;4.90;;;;;;;27.82;31.49;101099.38;108102;1253;74075;-84
2023/05/19 10:31:41;;;;;;;7.60;5.90;;;;;;;27.96;31.73;101095.95;108225;1253;74190;-85
2023/05/19 10:34:39;;;;;;;7.80;5.40;;;;;;;28.13;31.32;101097.49;108077;1254;71261;-83
2023/05/19 10:37:16;;;;;;;7.30;5.30;;;;;;;28.22;31.09;101095.14;107949;1254;59225;-84
2023/05/19 10:39:44;;;;;;;7.90;6.40;;;;;;;28.22;31.06;101091.69;108198;1254;60035;-84
2023/05/19 10:42:31;;;;;;;11.40;5.70;;;;;;;28.24;31.06;101095.72;108111;1252;75621;-85
2023/05/19 10:45:19;;;;;;;7.60;5.70;;;;;;;28.25;31.44;101088.21;108293;1254;74579;-84
2023/05/19 10:47:46;;;;;;;9.30;6.20;;;;;;;28.34;31.26;101084.11;108213;1254;71962;-84
2023/05/19 10:50:13;;;;;;;11.30;6.80;;;;;;;28.45;31.35;101088.91;108105;1254;61376;-84
2023/05/19 10:52:41;;;;;;;8.70;6.50;;;;;;;28.54;30.92;101081.83;108218;1253;60864;-84
2023/05/19 10:55:16;;;;;;;9.20;5.90;;;;;;;28.62;31.07;101084.55;108304;1253;68596;-83
2023/05/19 10:57:55;;;;;;;10.90;6.10;;;;;;;28.72;31.00;101084.81;108201;1253;66214;-83
2023/05/19 11:00:26;;;;;;;10.40;6.10;;;;;;;28.73;30.52;101086.08;108198;1253;64703;-84
2023/05/19 11:02:56;;;;;;;10.30;6.20;;;;;;;28.79;30.44;101090.17;108079;1254;61359;-84
2023/05/19 11:05:28;;;;;;;7.90;6.10;;;;;;;28.80;30.51;101089.24;108073;1254;61123;-83
2023/05/19 11:07:55;;;;;;;;;;;;;;;28.79;30.14;101087.33;108167;1254;76774;-83
2023/05/19 11:10:23;;;;;;;9.10;5.70;;;;;;;28.72;30.02;101088.81;108182;1254;72173;-83
2023/05/19 11:12:50;;;;;;;10.10;6.00;;;;;;;28.66;30.02;101087.70;108170;1254;65110;-85
2023/05/19 11:15:18;;;;;;;9.10;5.90;;;;;;;28.57;30.35;101083.23;108085;1254;62269;-83
2023/05/19 11:17:47;;;;;;;9.80;6.30;;;;;;;28.62;30.53;101087.37;108040;1254;61253;-84
2023/05/19 11:20:25;;;;;;;8.60;5.90;;;;;;;28.69;30.62;101089.16;108199;1254;66938;-84
2023/05/19 11:23:17;;;;;;;7.60;5.40;;;;;;;28.67;30.34;101094.55;108317;1254;72549;-84
2023/05/19 11:25:49;;;;;;;11.40;5.40;;;;;;;28.60;30.38;101090.49;108321;1254;73008;-84